Time;durP1;ratioP1;P1;durP2;ratioP2;P2;SDS_P1;SDS_P2;PMS_P1;PMS_P2;Temp;Humidity;BMP_temperature;BMP_pressure;BME280_temperature;BME280_humidity;BME280_pressure;Samples;Min_cycle;Max_cycle;Signal;HPM_P1;HPM_P2
2023/05/01 00:00:58;;;;;;;4.47;3.40;;;;;;;-145.69;100.00;52424.59;5096214;28;20205;-82
2023/05/01 00:03:26;;;;;;;6.03;3.53;;;;;;;-145.69;100.00;52444.38;5095479;28;20313;-81
2023/05/01 00:05:59;;;;;;;7.03;4.13;;;;;;;-145.69;100.00;52448.34;5095974;28;20193;-82
2023/05/01 00:08:26;;;;;;;5.30;3.40;;;;;;;-145.69;100.00;52448.34;5095707;28;20703;-81
2023/05/01 00:10:52;;;;;;;5.53;3.40;;;;;;;-145.69;100.00;52444.38;5095922;28;20202;-82
2023/05/01 00:13:20;;;;;;;6.80;4.07;;;;;;;-145.69;100.00;52440.44;5095661;28;20194;-81
2023/05/01 00:15:47;;;;;;;8.37;3.60;;;;;;;-145.69;100.00;52456.28;5095827;28;20212;-81
2023/05/01 00:18:14;;;;;;;5.57;3.40;;;;;;;-145.69;100.00;52444.38;5095787;28;20209;-80
2023/05/01 00:20:42;;;;;;;7.23;3.80;;;;;;;-145.69;100.00;52440.44;5095868;28;20198;-81
2023/05/01 00:23:08;;;;;;;5.40;3.50;;;;;;;-145.69;100.00;52446.38;5095045;28;20237;-81
2023/05/01 00:25:35;;;;;;;6.80;3.23;;;;;;;-145.69;100.00;52460.22;5095780;28;20217;-82
2023/05/01 00:28:02;;;;;;;6.17;3.60;;;;;;;-145.69;100.00;52456.28;5095430;28;20203;-81
2023/05/01 00:30:28;;;;;;;6.87;3.40;;;;;;;-145.69;100.00;52416.66;5095551;28;20209;-81
2023/05/01 00:32:54;;;;;;;7.13;3.50;;;;;;;-145.69;100.00;52448.34;5095344;28;20206;-83
2023/05/01 00:35:21;;;;;;;7.00;3.93;;;;;;;-145.69;100.00;52448.34;5095425;28;20223;-82
2023/05/01 00:37:49;;;;;;;6.47;3.23;;;;;;;-145.69;100.00;52424.59;5095080;28;20190;-82
2023/05/01 00:40:16;;;;;;;8.27;3.53;;;;;;;-145.69;100.00;52418.63;5095653;28;20201;-83
2023/05/01 00:42:42;;;;;;;5.37;3.53;;;;;;;-145.69;100.00;52408.75;5094976;28;20225;-82
2023/05/01 00:45:10;;;;;;;9.40;3.60;;;;;;;-145.69;100.00;52456.28;5095115;28;20289;-81
2023/05/01 00:47:37;;;;;;;6.07;3.30;;;;;;;-145.69;100.00;52420.63;5095250;28;20202;-81
2023/05/01 00:50:03;;;;;;;4.90;3.20;;;;;;;-145.69;100.00;52432.50;5095055;28;20213;-81
2023/05/01 00:52:30;;;;;;;5.40;3.80;;;;;;;-145.69;100.00;52406.75;5095243;28;20201;-82
2023/05/01 00:54:59;;;;;;;6.77;3.60;;;;;;;-145.69;100.00;52402.78;5095394;28;20198;-81
2023/05/01 00:57:25;;;;;;;7.50;3.90;;;;;;;-145.69;100.00;52404.78;5094062;28;20202;-81
2023/05/01 00:59:52;;;;;;;10.87;3.60;;;;;;;-145.69;100.00;52428.53;5094445;28;20232;-82
2023/05/01 01:02:18;;;;;;;6.77;3.87;;;;;;;-145.69;100.00;52446.38;5094998;28;20194;-82
2023/05/01 01:04:46;;;;;;;5.00;3.50;;;;;;;-145.69;100.00;52444.38;5094598;28;20218;-82
2023/05/01 01:07:20;;;;;;;4.97;3.10;;;;;;;-145.69;100.00;52446.38;5094806;28;20210;-82
2023/05/01 01:09:58;;;;;;;4.10;2.67;;;;;;;-145.69;100.00;52408.75;5095005;28;20202;-82
2023/05/01 01:12:32;;;;;;;7.97;3.40;;;;;;;-145.69;100.00;52396.84;5094782;28;20583;-82
2023/05/01 01:15:04;;;;;;;5.77;3.70;;;;;;;-145.69;100.00;52408.75;5094921;28;20237;-82
2023/05/01 01:17:36;;;;;;;9.93;3.70;;;;;;;-145.69;100.00;52440.44;5094504;28;20206;-81
2023/05/01 01:20:26;;;;;;;8.10;3.97;;;;;;;-145.69;100.00;52373.09;5094075;28;20220;-82
2023/05/01 01:23:01;;;;;;;6.37;2.90;;;;;;;-145.69;100.00;52452.31;5094423;28;20577;-81
2023/05/01 01:25:55;;;;;;;6.23;3.00;;;;;;;-145.69;100.00;52418.63;5093999;28;20217;-82
2023/05/01 01:28:45;;;;;;;5.00;3.37;;;;;;;-145.69;100.00;52482.00;5094525;28;20254;-81
2023/05/01 01:31:20;;;;;;;3.43;2.80;;;;;;;-145.69;100.00;52442.41;5094089;28;20205;-81
2023/05/01 01:34:13;;;;;;;4.93;2.83;;;;;;;-145.69;100.00;52448.34;5094140;28;20652;-81
2023/05/01 01:36:43;;;;;;;7.17;3.70;;;;;;;-145.69;100.00;52428.53;5088389;28;20191;-81
2023/05/01 01:39:16;;;;;;;5.87;3.00;;;;;;;-145.69;100.00;52438.44;5073728;28;20291;-82
2023/05/01 01:41:49;;;;;;;6.07;3.20;;;;;;;-145.69;100.00;52420.63;5073849;28;20199;-82
2023/05/01 01:44:20;;;;;;;7.77;2.70;;;;;;;-145.69;100.00;52440.44;5084522;28;20225;-81
2023/05/01 01:46:50;;;;;;;6.17;3.17;;;;;;;-145.69;100.00;52428.53;5093830;28;20194;-82
2023/05/01 01:49:21;;;;;;;4.87;3.17;;;;;;;-145.69;100.00;52452.31;5094056;28;20200;-82
2023/05/01 01:51:49;;;;;;;8.30;3.20;;;;;;;-145.69;100.00;52444.38;5093922;28;20194;-81
2023/05/01 01:54:20;;;;;;;5.10;3.27;;;;;;;-145.69;100.00;52450.31;5093898;28;20198;-81
2023/05/01 01:56:48;;;;;;;5.43;3.47;;;;;;;-145.69;100.00;52416.66;5094095;28;20206;-82
2023/05/01 01:59:16;;;;;;;4.27;3.20;;;;;;;-145.69;100.00;52420.63;5093564;28;20197;-81
2023/05/01 02:01:44;;;;;;;4.60;3.10;;;;;;;-145.69;100.00;52410.72;5093512;28;20201;-81
2023/05/01 02:04:12;;;;;;;6.40;3.33;;;;;;;-145.69;100.00;52440.44;5093301;28;20237;-81
2023/05/01 02:06:41;;;;;;;6.00;3.50;;;;;;;-145.69;100.00;52428.53;5093902;28;20194;-81
2023/05/01 02:09:09;;;;;;;5.87;3.50;;;;;;;-145.69;100.00;52460.22;5092942;28;20202;-81
2023/05/01 02:11:37;;;;;;;5.20;3.37;;;;;;;-145.69;100.00;52440.44;5093122;28;20209;-82
2023/05/01 02:14:07;;;;;;;5.20;3.27;;;;;;;-145.69;100.00;52460.22;5092141;28;20591;-82
2023/05/01 02:16:35;;;;;;;5.57;3.63;;;;;;;-145.69;100.00;52484.00;5093675;28;20202;-82
2023/05/01 02:19:03;;;;;;;4.70;3.53;;;;;;;-145.69;100.00;52476.06;5093372;28;20202;-82
2023/05/01 02:21:31;;;;;;;5.70;3.60;;;;;;;-145.69;100.00;52396.84;5093318;28;20210;-81
2023/05/01 02:24:01;;;;;;;3.73;2.93;;;;;;;-145.69;100.00;52442.41;5093339;28;20226;-82
2023/05/01 02:26:29;;;;;;;6.37;3.33;;;;;;;-145.69;100.00;52464.19;5093576;28;20221;-81
2023/05/01 02:28:55;;;;;;;6.73;3.80;;;;;;;-145.69;100.00;52434.47;5092905;28;20232;-81
2023/05/01 02:31:23;;;;;;;7.37;3.70;;;;;;;-145.69;100.00;52416.66;5092809;28;20200;-81
2023/05/01 02:33:49;;;;;;;5.57;2.93;;;;;;;-145.69;100.00;52428.53;5093240;28;20202;-81
2023/05/01 02:36:16;;;;;;;4.17;2.93;;;;;;;-145.69;100.00;52454.28;5093387;28;20200;-81
2023/05/01 02:38:42;;;;;;;4.27;3.03;;;;;;;-145.69;100.00;52446.38;5092920;28;20190;-82
2023/05/01 02:41:12;;;;;;;5.63;3.57;;;;;;;-145.69;100.00;52408.75;5091957;28;20429;-83
2023/05/01 02:43:41;;;;;;;6.20;3.80;;;;;;;-145.69;100.00;52422.59;5092821;28;20218;-82
2023/05/01 02:46:10;;;;;;;6.83;3.70;;;;;;;-145.69;100.00;52452.31;5093083;28;20279;-81
2023/05/01 02:48:38;;;;;;;5.30;3.27;;;;;;;-145.69;100.00;52448.34;5092859;28;20561;-82
2023/05/01 02:51:06;;;;;;;8.30;3.50;;;;;;;-145.69;100.00;52428.53;5092968;28;20198;-82
2023/05/01 02:53:33;;;;;;;6.97;3.80;;;;;;;-145.69;100.00;52448.34;5092821;28;20209;-82
2023/05/01 02:55:59;;;;;;;5.57;3.30;;;;;;;-145.69;100.00;52476.06;5093143;28;20198;-82
2023/05/01 02:58:32;;;;;;;4.50;3.53;;;;;;;-145.69;100.00;52450.31;5092535;28;20209;-82
2023/05/01 03:00:58;;;;;;;6.03;3.10;;;;;;;-145.69;100.00;52460.22;5093014;28;20217;-81
2023/05/01 03:03:25;;;;;;;4.97;3.60;;;;;;;-145.69;100.00;52442.41;5092794;28;20226;-81
2023/05/01 03:05:51;;;;;;;7.63;4.33;;;;;;;-145.69;100.00;52424.59;5093149;28;20201;-81
2023/05/01 03:08:18;;;;;;;6.00;3.47;;;;;;;-145.69;100.00;52452.31;5092821;28;20225;-82
2023/05/01 03:10:44;;;;;;;5.23;3.23;;;;;;;-145.69;100.00;52444.38;5092798;28;20198;-81
2023/05/01 03:13:11;;;;;;;7.07;3.70;;;;;;;-145.69;100.00;52448.34;5092668;28;20201;-81
2023/05/01 03:15:39;;;;;;;4.83;3.33;;;;;;;-145.69;100.00;52456.28;5092464;28;20197;-82
2023/05/01 03:18:06;;;;;;;5.20;3.50;;;;;;;-145.69;100.00;52434.47;5092887;28;20243;-81
2023/05/01 03:20:32;;;;;;;4.57;3.67;;;;;;;-145.69;100.00;52448.34;5094314;28;20205;-82
2023/05/01 03:22:59;;;;;;;5.40;3.50;;;;;;;-145.69;100.00;52440.44;5097189;28;20209;-82
2023/05/01 03:25:25;;;;;;;6.80;3.70;;;;;;;-145.69;100.00;52458.25;5096636;28;20198;-82
2023/05/01 03:27:52;;;;;;;7.27;3.90;;;;;;;-145.69;100.00;52436.47;5096194;28;20202;-82
2023/05/01 03:30:18;;;;;;;6.70;4.30;;;;;;;-145.69;100.00;52476.06;5096653;28;20213;-82
2023/05/01 03:32:46;;;;;;;4.87;3.60;;;;;;;-145.69;100.00;52452.31;5093965;28;20703;-83
2023/05/01 03:35:13;;;;;;;7.07;4.30;;;;;;;-145.69;100.00;52470.13;5096028;28;20221;-83
2023/05/01 03:37:39;;;;;;;5.27;3.70;;;;;;;-145.69;100.00;52484.00;5096669;28;20198;-83
2023/05/01 03:40:07;;;;;;;5.17;3.77;;;;;;;-145.69;100.00;52472.13;5096582;28;20209;-82
2023/05/01 03:42:33;;;;;;;5.03;3.77;;;;;;;-145.69;100.00;52456.28;5096612;28;20217;-82
2023/05/01 03:45:00;;;;;;;5.67;3.67;;;;;;;-145.69;100.00;52497.84;5096195;28;20229;-82
2023/05/01 03:47:26;;;;;;;5.50;3.70;;;;;;;-145.69;100.00;52478.06;5096559;28;20217;-82
2023/05/01 03:49:54;;;;;;;5.67;4.23;;;;;;;-145.69;100.00;52480.03;5096258;28;20209;-82
2023/05/01 03:52:21;;;;;;;7.03;4.63;;;;;;;-145.69;100.00;52507.75;5096197;28;20207;-82
2023/05/01 03:54:48;;;;;;;5.70;4.07;;;;;;;-145.69;100.00;52478.06;5095693;28;20190;-82
2023/05/01 03:57:15;;;;;;;6.90;4.23;;;;;;;-145.69;100.00;52452.31;5096462;28;20194;-83
2023/05/01 03:59:42;;;;;;;6.67;3.90;;;;;;;-145.69;100.00;52448.34;5095922;28;20202;-81
2023/05/01 04:02:10;;;;;;;9.17;4.20;;;;;;;-145.69;100.00;52482.00;5094603;28;20556;-82
2023/05/01 04:04:37;;;;;;;5.80;4.23;;;;;;;-145.69;100.00;52480.03;5095877;28;20334;-82
2023/05/01 04:07:04;;;;;;;5.90;3.70;;;;;;;-145.69;100.00;52468.16;5096112;28;20202;-82
2023/05/01 04:09:31;;;;;;;7.23;4.33;;;;;;;-145.69;100.00;52464.19;5095933;28;20198;-82
2023/05/01 04:11:58;;;;;;;6.27;4.57;;;;;;;-145.69;100.00;52466.16;5096112;28;20209;-82
2023/05/01 04:14:24;;;;;;;6.73;4.53;;;;;;;-145.69;100.00;52484.00;5095375;28;20198;-82
2023/05/01 04:16:51;;;;;;;7.27;4.10;;;;;;;-145.69;100.00;52485.97;5095668;28;20656;-82
2023/05/01 04:19:17;;;;;;;5.87;4.60;;;;;;;-145.69;100.00;52476.06;5095659;28;20205;-82
2023/05/01 04:21:44;;;;;;;7.93;4.30;;;;;;;-145.69;100.00;52452.31;5095706;28;20208;-81
2023/05/01 04:24:12;;;;;;;5.27;4.00;;;;;;;-145.69;100.00;52468.16;5095844;28;20226;-82
2023/05/01 04:26:38;;;;;;;7.67;4.23;;;;;;;-145.69;100.00;52484.00;5095571;28;20251;-81
2023/05/01 04:29:05;;;;;;;7.43;4.77;;;;;;;-145.69;100.00;52476.06;5094200;28;20199;-82
2023/05/01 04:31:31;;;;;;;8.37;5.07;;;;;;;-145.69;100.00;52472.13;5095474;28;20194;-82
2023/05/01 04:33:58;;;;;;;6.97;4.60;;;;;;;-145.69;100.00;52468.16;5095234;28;20202;-81
2023/05/01 04:36:24;;;;;;;6.67;4.47;;;;;;;-145.69;100.00;52480.03;5095684;28;20202;-82
2023/05/01 04:38:51;;;;;;;7.83;4.53;;;;;;;-145.69;100.00;52462.22;5095440;28;20209;-82
2023/05/01 04:41:18;;;;;;;8.63;5.00;;;;;;;-145.69;100.00;52464.19;5095521;28;20201;-81
2023/05/01 04:43:45;;;;;;;9.90;5.20;;;;;;;-145.69;100.00;52460.22;5094859;28;20229;-81
2023/05/01 04:46:11;;;;;;;10.07;4.73;;;;;;;-145.69;100.00;52440.44;5094393;28;20303;-81
2023/05/01 04:48:38;;;;;;;7.30;5.43;;;;;;;-145.69;100.00;52503.81;5094971;28;20221;-81
2023/05/01 04:51:04;;;;;;;7.37;4.47;;;;;;;-145.69;100.00;52464.19;5094992;28;20210;-81
2023/05/01 04:53:31;;;;;;;6.37;4.93;;;;;;;-145.69;100.00;52450.31;5095372;28;20213;-82
2023/05/01 04:55:58;;;;;;;7.50;4.73;;;;;;;-145.69;100.00;52497.84;5095031;28;20202;-81
2023/05/01 04:58:26;;;;;;;6.80;4.50;;;;;;;-145.69;100.00;52462.22;5094270;28;20190;-82
2023/05/01 05:00:52;;;;;;;9.70;5.20;;;;;;;-145.69;100.00;52448.34;5095002;28;20205;-82
2023/05/01 05:03:18;;;;;;;10.40;5.27;;;;;;;-145.69;100.00;52470.13;5094547;28;20204;-82
2023/05/01 05:05:45;;;;;;;7.57;5.07;;;;;;;-145.69;100.00;52487.97;5094617;28;20793;-82
2023/05/01 05:08:12;;;;;;;7.00;4.53;;;;;;;-145.69;100.00;52468.16;5095121;28;20210;-82
2023/05/01 05:10:38;;;;;;;6.77;5.13;;;;;;;-145.69;100.00;52485.97;5094770;28;20194;-82
2023/05/01 05:13:04;;;;;;;8.03;5.17;;;;;;;-145.69;100.00;52487.97;5094785;28;20205;-82
2023/05/01 05:15:32;;;;;;;7.73;5.10;;;;;;;-145.69;100.00;52448.34;5094734;28;20213;-82
2023/05/01 05:17:59;;;;;;;7.93;4.63;;;;;;;-145.69;100.00;52478.06;5094283;28;20649;-83
2023/05/01 05:20:25;;;;;;;6.73;4.10;;;;;;;-145.69;100.00;52484.00;5094625;28;20670;-82
2023/05/01 05:22:52;;;;;;;5.90;3.83;;;;;;;-145.69;100.00;52476.06;5094619;28;20271;-82
2023/05/01 05:25:18;;;;;;;7.03;3.87;;;;;;;-145.69;100.00;52464.19;5093608;28;20689;-82
2023/05/01 05:27:45;;;;;;;6.60;4.17;;;;;;;-145.69;100.00;52476.06;5074402;28;20203;-83
2023/05/01 05:30:12;;;;;;;6.47;4.27;;;;;;;-145.69;100.00;52472.13;5093746;28;20205;-82
2023/05/01 05:32:40;;;;;;;5.67;4.10;;;;;;;-145.69;100.00;52484.00;5091400;28;20190;-82
2023/05/01 05:35:07;;;;;;;6.53;3.83;;;;;;;-145.69;100.00;52485.97;5094343;28;20202;-83
2023/05/01 05:37:33;;;;;;;7.87;4.23;;;;;;;-145.69;100.00;52503.81;5094373;28;20198;-82
2023/05/01 05:40:00;;;;;;;7.30;4.20;;;;;;;-145.69;100.00;52511.72;5094594;28;20197;-82
2023/05/01 05:42:26;;;;;;;5.33;4.07;;;;;;;-145.69;100.00;52515.69;5093304;28;20202;-83
2023/05/01 05:44:52;;;;;;;5.77;4.10;;;;;;;-145.69;100.00;52468.16;5094186;28;20229;-83
2023/05/01 05:47:19;;;;;;;7.27;4.27;;;;;;;-145.69;100.00;52489.94;5094017;28;20229;-82
2023/05/01 05:49:47;;;;;;;7.57;4.57;;;;;;;-145.69;100.00;52468.16;5093725;28;20229;-84
2023/05/01 05:52:13;;;;;;;7.70;4.73;;;;;;;-145.69;100.00;52468.16;5093761;28;20194;-83
2023/05/01 05:54:40;;;;;;;6.60;4.40;;;;;;;-145.69;100.00;52464.19;5093908;28;20198;-83
2023/05/01 05:57:06;;;;;;;10.30;4.87;;;;;;;-145.69;100.00;52472.13;5093918;28;20205;-83
2023/05/01 05:59:33;;;;;;;8.77;4.50;;;;;;;-145.69;100.00;52478.06;5093652;28;20201;-83
2023/05/01 06:01:59;;;;;;;9.73;5.10;;;;;;;-145.69;100.00;52462.22;5093434;28;20897;-83
2023/05/01 06:04:26;;;;;;;6.77;4.20;;;;;;;-145.69;100.00;52458.25;5093427;28;20233;-82
2023/05/01 06:06:54;;;;;;;12.27;5.03;;;;;;;-145.69;100.00;52426.56;5093924;28;20202;-82
2023/05/01 06:09:20;;;;;;;7.27;4.53;;;;;;;-145.69;100.00;52482.00;5093519;28;20202;-82
2023/05/01 06:11:47;;;;;;;6.85;4.50;;;;;;;-145.69;100.00;52420.63;5093868;28;20198;-82
2023/05/01 06:14:14;;;;;;;8.13;4.40;;;;;;;-145.69;100.00;52476.06;5093505;28;20240;-82
2023/05/01 06:16:40;;;;;;;6.93;4.60;;;;;;;-145.69;100.00;52466.16;5093511;28;20202;-82
2023/05/01 06:19:09;;;;;;;6.70;4.35;;;;;;;-145.69;100.00;52430.53;5093611;28;20198;-82
2023/05/01 06:21:35;;;;;;;7.03;4.60;;;;;;;-145.69;100.00;52444.38;5093784;28;20668;-84
2023/05/01 06:24:03;;;;;;;7.40;4.20;;;;;;;-145.69;100.00;52426.56;5093526;28;20229;-82
2023/05/01 06:26:30;;;;;;;6.55;4.40;;;;;;;-145.69;100.00;52428.53;5093388;28;20209;-82
2023/05/01 06:28:56;;;;;;;7.50;4.50;;;;;;;-145.69;100.00;52420.63;5092922;28;20198;-83
2023/05/01 06:31:23;;;;;;;5.63;4.20;;;;;;;-145.69;100.00;52456.28;5093459;28;20198;-84
2023/05/01 06:33:49;;;;;;;7.00;3.88;;;;;;;-145.69;100.00;52438.44;5093368;28;20201;-80
2023/05/01 06:36:16;;;;;;;6.10;3.80;;;;;;;-145.69;100.00;52468.16;5091636;28;20225;-82
2023/05/01 06:38:47;;;;;;;9.18;4.13;;;;;;;-145.69;100.00;52396.84;5092755;28;20661;-82
2023/05/01 06:41:15;;;;;;;8.32;3.72;;;;;;;-145.69;100.00;52412.69;5092788;28;20205;-82
2023/05/01 06:43:41;;;;;;;5.28;3.47;;;;;;;-145.69;100.00;52436.47;5093152;28;20201;-82
2023/05/01 06:46:08;;;;;;;6.20;3.90;;;;;;;-145.69;100.00;52464.19;5093194;28;20315;-82
2023/05/01 06:48:34;;;;;;;5.25;3.70;;;;;;;-145.69;100.00;52418.63;5092369;28;20198;-82
2023/05/01 06:51:01;;;;;;;9.60;4.10;;;;;;;-145.69;100.00;52446.38;5093217;28;20209;-83
2023/05/01 06:53:27;;;;;;;7.13;3.75;;;;;;;-145.69;100.00;52442.41;5092753;28;20198;-80
2023/05/01 06:55:54;;;;;;;10.38;4.32;;;;;;;-145.69;100.00;52440.44;5092785;28;20205;-81
2023/05/01 06:58:21;;;;;;;5.47;3.42;;;;;;;-145.69;100.00;52404.78;5092769;28;20194;-81
2023/05/01 07:00:48;;;;;;;5.72;3.80;;;;;;;-145.69;100.00;52414.69;5092981;28;20198;-81
2023/05/01 07:03:14;;;;;;;4.55;3.42;;;;;;;-145.69;100.00;52422.59;5092437;28;20194;-82
2023/05/01 07:05:41;;;;;;;5.57;3.58;;;;;;;-145.69;100.00;52410.72;5092562;28;20232;-82
2023/05/01 07:08:08;;;;;;;6.38;3.80;;;;;;;-145.69;100.00;52406.75;5091685;28;20437;-82
2023/05/01 07:10:35;;;;;;;4.97;3.67;;;;;;;-145.69;100.00;52390.91;5092540;28;20256;-82
2023/05/01 07:13:02;;;;;;;5.90;3.50;;;;;;;-145.69;100.00;52398.84;5093004;28;20225;-82
2023/05/01 07:15:30;;;;;;;4.65;3.30;;;;;;;-145.69;100.00;52430.53;5092421;28;20198;-82
2023/05/01 07:17:57;;;;;;;6.32;3.63;;;;;;;-145.69;100.00;52428.53;5092841;28;20206;-82
2023/05/01 07:20:23;;;;;;;6.15;3.30;;;;;;;-145.69;100.00;52408.75;5092942;28;20198;-82
2023/05/01 07:22:50;;;;;;;7.00;3.85;;;;;;;-145.69;100.00;52420.63;5092754;28;20199;-82
2023/05/01 07:25:16;;;;;;;5.07;3.80;;;;;;;-145.69;100.00;52420.63;5092539;28;20630;-82
2023/05/01 07:27:43;;;;;;;8.45;3.95;;;;;;;-145.69;100.00;52440.44;5092573;28;20251;-82
2023/05/01 07:30:11;;;;;;;9.43;5.00;;;;;;;-145.69;100.00;52432.50;5092707;28;20210;-82
2023/05/01 07:32:39;;;;;;;6.80;4.07;;;;;;;-145.69;100.00;52424.59;5086154;28;20195;-82
2023/05/01 07:35:06;;;;;;;8.10;4.40;;;;;;;-145.69;100.00;52440.44;5072334;28;20198;-82
2023/05/01 07:37:33;;;;;;;7.97;4.28;;;;;;;-145.69;100.00;52406.75;5078226;28;20208;-81
2023/05/01 07:39:59;;;;;;;6.88;4.53;;;;;;;-145.69;100.00;52377.06;5092647;28;20557;-82
2023/05/01 07:42:26;;;;;;;5.93;4.00;;;;;;;-145.69;100.00;52400.81;5092539;28;20202;-82
2023/05/01 07:44:53;;;;;;;8.05;4.93;;;;;;;-145.69;100.00;52394.88;5092628;28;20715;-79
2023/05/01 07:47:19;;;;;;;8.48;4.30;;;;;;;-145.69;100.00;52408.75;5092397;28;20190;-80
2023/05/01 07:49:47;;;;;;;9.57;4.35;;;;;;;-145.69;100.00;52396.84;5092413;28;20202;-81
2023/05/01 07:52:15;;;;;;;6.20;4.30;;;;;;;-145.69;100.00;52375.06;5092182;28;20209;-81
2023/05/01 07:54:41;;;;;;;9.27;4.25;;;;;;;-145.69;100.00;52402.78;5092384;28;20251;-81
2023/05/01 07:57:08;;;;;;;9.30;4.20;;;;;;;-145.69;100.00;52359.22;5092587;28;20202;-80
2023/05/01 07:59:34;;;;;;;9.48;4.45;;;;;;;-145.69;96.27;52392.91;5092257;28;20198;-81
2023/05/01 08:02:01;;;;;;;8.20;4.85;;;;;;;-145.69;98.58;52381.00;5092187;28;20614;-80
2023/05/01 08:04:28;;;;;;;6.38;3.63;;;;;;;-145.69;98.36;52361.22;5090994;28;20648;-81
2023/05/01 08:06:56;;;;;;;6.78;4.43;;;;;;;-145.69;100.00;52375.06;5093970;28;20665;-83
2023/05/01 08:09:22;;;;;;;5.65;3.88;;;;;;;-145.69;94.91;52361.22;5096299;28;20584;-80
2023/05/01 08:11:49;;;;;;;6.18;4.18;;;;;;;-145.69;100.00;52359.22;5095610;28;20202;-82
2023/05/01 08:14:16;;;;;;;8.38;4.57;;;;;;;-145.69;100.00;52406.75;5096607;28;20198;-82
2023/05/01 08:16:42;;;;;;;6.75;4.35;;;;;;;-145.69;100.00;52369.13;5096313;28;20559;-80
2023/05/01 08:19:09;;;;;;;8.00;4.28;;;;;;;-145.69;100.00;52398.84;5096277;28;20197;-81
2023/05/01 08:21:35;;;;;;;9.07;4.57;;;;;;;-145.69;100.00;52386.97;5095666;28;20202;-81
2023/05/01 08:24:03;;;;;;;6.18;4.38;;;;;;;-145.69;100.00;52361.22;5095965;28;20206;-80
2023/05/01 08:26:30;;;;;;;6.82;4.70;;;;;;;-145.69;100.00;52373.09;5095536;28;20222;-80
2023/05/01 08:28:57;;;;;;;6.82;4.63;;;;;;;-145.69;100.00;52377.06;5095448;28;20202;-79
2023/05/01 08:31:24;;;;;;;6.75;4.70;;;;;;;-145.69;100.00;52375.06;5095519;28;20202;-80
2023/05/01 08:33:50;;;;;;;8.32;4.60;;;;;;;-145.69;100.00;52394.88;5094900;28;20530;-79
2023/05/01 08:36:17;;;;;;;7.05;4.65;;;;;;;-145.69;100.00;52402.78;5095486;28;20218;-81
2023/05/01 08:38:43;;;;;;;8.10;4.40;;;;;;;-145.69;100.00;52406.75;5095637;28;20198;-80
2023/05/01 08:41:15;;;;;;;5.75;4.30;;;;;;;-145.69;100.00;52408.75;5095101;28;20198;-80
2023/05/01 08:43:43;;;;;;;12.77;4.55;;;;;;;-145.69;100.00;52381.00;5095395;28;20701;-80
2023/05/01 08:46:09;;;;;;;8.25;4.47;;;;;;;-145.69;100.00;52418.63;5094662;28;20222;-80
2023/05/01 08:48:38;;;;;;;8.63;4.60;;;;;;;-145.69;100.00;52390.91;5095413;28;20202;-80
2023/05/01 08:51:05;;;;;;;9.45;4.78;;;;;;;-145.69;100.00;52388.94;5095489;28;20627;-81
2023/05/01 08:53:34;;;;;;;7.85;5.07;;;;;;;-145.69;100.00;52396.84;5095149;28;20202;-80
2023/05/01 08:56:01;;;;;;;8.15;5.70;;;;;;;-145.69;100.00;52377.06;5094938;28;20676;-79
2023/05/01 08:58:30;;;;;;;8.07;4.60;;;;;;;-145.69;100.00;52404.78;5095182;28;20202;-80
2023/05/01 09:01:00;;;;;;;10.23;4.78;;;;;;;-145.69;100.00;52406.75;5094690;28;20194;-80
2023/05/01 09:03:27;;;;;;;7.47;4.53;;;;;;;-145.69;100.00;52410.72;5094882;28;20198;-81
2023/05/01 09:05:54;;;;;;;7.03;4.70;;;;;;;-145.69;100.00;52377.06;5095030;28;20236;-81
2023/05/01 09:08:21;;;;;;;7.50;4.47;;;;;;;-145.69;100.00;52377.06;5094538;28;20649;-81
2023/05/01 09:10:48;;;;;;;7.28;4.63;;;;;;;-145.69;100.00;52408.75;5094418;28;20668;-78
2023/05/01 09:13:15;;;;;;;8.55;4.60;;;;;;;-145.69;100.00;52410.72;5092633;28;20202;-78
2023/05/01 09:15:43;;;;;;;12.38;4.20;;;;;;;-145.69;100.00;52381.00;5094632;28;20202;-81
2023/05/01 09:18:11;;;;;;;7.55;5.00;;;;;;;-145.69;100.00;52412.69;5092667;28;20432;-81
2023/05/01 09:20:38;;;;;;;5.97;4.30;;;;;;;-145.69;100.00;52416.66;5094284;28;20199;-80
2023/05/01 09:23:05;;;;;;;8.10;4.43;;;;;;;-145.69;100.00;52377.06;5094800;28;20214;-80
2023/05/01 09:25:31;;;;;;;7.72;3.95;;;;;;;-145.69;100.00;52361.22;5093960;28;20217;-80
2023/05/01 09:27:58;;;;;;;4.60;3.35;;;;;;;-145.69;100.00;52384.97;5087720;28;20638;-82
2023/05/01 09:30:35;;;;;;;8.02;4.10;;;;;;;-145.69;100.00;52398.84;5092168;28;20198;-78
2023/05/01 09:33:11;;;;;;;5.55;4.10;;;;;;;-145.69;100.00;52412.69;5093940;28;20190;-78
2023/05/01 09:35:53;;;;;;;6.45;3.72;;;;;;;-145.69;100.00;52390.91;5094327;28;20209;-77
2023/05/01 09:38:22;;;;;;;9.55;4.00;;;;;;;-145.69;100.00;52422.59;5094220;28;20206;-78
2023/05/01 09:40:48;;;;;;;4.50;3.47;;;;;;;-145.69;100.00;52404.78;5094072;28;20692;-79
2023/05/01 09:43:24;;;;;;;5.95;3.97;;;;;;;-145.69;100.00;52434.47;5094310;28;20198;-80
2023/05/01 09:46:00;;;;;;;8.02;4.40;;;;;;;-145.69;100.00;52408.75;5093892;28;20263;-79
2023/05/01 09:48:28;;;;;;;5.10;3.65;;;;;;;-145.69;100.00;52404.78;5094000;28;20215;-78
2023/05/01 09:50:54;;;;;;;7.97;4.43;;;;;;;-145.69;100.00;52418.63;5093067;28;20198;-77
2023/05/01 09:53:36;;;;;;;6.13;3.60;;;;;;;-145.69;100.00;52377.06;5093700;28;20200;-80
2023/05/01 09:56:03;;;;;;;6.35;4.00;;;;;;;-145.69;100.00;52390.91;5093232;28;20467;-79
2023/05/01 09:58:30;;;;;;;5.75;3.78;;;;;;;-145.69;100.00;52381.00;5093584;28;20198;-79
2023/05/01 10:00:56;;;;;;;5.43;3.80;;;;;;;-145.69;100.00;52396.84;5093689;28;20210;-80
2023/05/01 10:03:23;;;;;;;7.28;3.53;;;;;;;-145.69;100.00;52420.63;5091794;28;20190;-78
2023/05/01 10:05:50;;;;;;;6.93;4.38;;;;;;;-145.69;100.00;52394.88;5092954;28;20225;-79
2023/05/01 10:08:17;;;;;;;4.72;3.40;;;;;;;-145.69;100.00;52440.44;5093578;28;20201;-79
2023/05/01 10:10:44;;;;;;;5.65;3.90;;;;;;;-145.69;100.00;52422.59;5093363;28;20194;-79
2023/05/01 10:13:15;;;;;;;4.97;3.60;;;;;;;-145.69;100.00;52438.44;5093335;28;20548;-79
2023/05/01 10:15:41;;;;;;;5.65;3.80;;;;;;;-145.69;100.00;52400.81;5093412;28;20198;-78
2023/05/01 10:18:10;;;;;;;6.25;3.42;;;;;;;-145.69;100.00;52386.97;5093398;28;20656;-79
2023/05/01 10:20:36;;;;;;;6.78;3.63;;;;;;;-145.69;100.00;52452.31;5096628;28;20198;-79
2023/05/01 10:23:04;;;;;;;8.52;4.07;;;;;;;-145.69;100.00;52377.06;5094989;28;20560;-79
2023/05/01 10:25:32;;;;;;;5.50;3.90;;;;;;;-145.69;100.00;52428.53;5092700;28;20225;-78
2023/05/01 10:27:59;;;;;;;5.68;3.05;;;;;;;-145.69;100.00;52414.69;5093171;28;20197;-77
2023/05/01 10:30:26;;;;;;;5.03;3.85;;;;;;;-145.69;100.00;52430.53;5092822;28;20209;-78
2023/05/01 10:32:53;;;;;;;5.68;3.50;;;;;;;-145.69;100.00;52432.50;5092546;28;20197;-77
2023/05/01 10:35:24;;;;;;;6.32;3.85;;;;;;;-145.69;100.00;52388.94;5092704;28;20710;-77
2023/05/01 10:37:59;;;;;;;6.18;3.60;;;;;;;-145.69;100.00;52381.00;5093258;28;20194;-77
2023/05/01 10:40:47;;;;;;;5.15;3.22;;;;;;;-145.69;100.00;52422.59;5093369;28;20193;-78
2023/05/01 10:43:19;;;;;;;5.20;3.30;;;;;;;-145.69;100.00;52424.59;5092556;28;20194;-78
2023/05/01 10:45:47;;;;;;;6.25;3.15;;;;;;;-145.69;100.00;52412.69;5072925;28;20252;-78
2023/05/01 10:48:55;;;;;;;5.47;3.22;;;;;;;-145.69;100.00;52365.16;5072940;28;20206;-77
2023/05/01 10:51:22;;;;;;;3.90;3.00;;;;;;;-145.69;100.00;52375.06;5073791;28;20202;-77
2023/05/01 10:54:10;;;;;;;5.07;3.45;;;;;;;-145.69;100.00;52365.16;5091848;28;20268;-77
2023/05/01 10:56:44;;;;;;;6.03;2.88;;;;;;;-145.69;95.34;52402.78;5092742;28;20198;-77
2023/05/01 10:59:11;;;;;;;5.22;3.05;;;;;;;-145.69;99.35;52381.00;5092799;28;20201;-78
2023/05/01 11:01:39;;;;;;;4.07;3.20;;;;;;;-145.69;98.56;52384.97;5092773;28;20660;-78
2023/05/01 11:04:08;;;;;;;4.50;2.72;;;;;;;-145.69;100.00;52365.16;5092133;28;20724;-78
2023/05/01 11:06:35;;;;;;;5.72;2.85;;;;;;;-145.69;100.00;52363.19;5092743;28;20778;-78
2023/05/01 11:09:03;;;;;;;10.52;3.38;;;;;;;-145.69;97.51;52369.13;5092441;28;20202;-77
2023/05/01 11:11:50;;;;;;;3.58;2.58;;;;;;;-145.69;97.87;52396.84;5093005;28;20198;-78
2023/05/01 11:14:17;;;;;;;4.15;2.80;;;;;;;-145.69;90.85;52341.41;5092558;28;20657;-78